Time,TemperatureF,DewpointF,PressureIn,WindDirection,WindDirectionDegrees,WindSpeedMPH,WindSpeedGustMPH,Humidity,HourlyPrecipIn,Conditions,Clouds,dailyrainin,SoftwareType,DateUTC
2013-04-24 00:03:00,41.6,39.2,30.16,NNW,329,0.0,6.0,91,0.00,,---,0.00,VWS V13.01,2013-04-24 04:03:00,
2013-04-24 01:03:00,41.5,39.3,30.13,North,360,0.0,5.0,92,0.00,,---,0.00,VWS V13.01,2013-04-24 05:03:00,
2013-04-24 02:03:00,41.5,39.3,30.07,NNW,332,0.0,6.0,92,0.00,,---,0.00,VWS V13.01,2013-04-24 06:03:00,
2013-04-24 03:03:00,42.0,39.8,30.03,NNW,341,0.0,5.0,92,0.01,,---,0.01,VWS V13.01,2013-04-24 07:03:00,
2013-04-24 04:03:00,42.4,40.5,29.99,West,281,6.0,10.0,93,0.01,,---,0.01,VWS V13.01,2013-04-24 08:03:00,
2013-04-24 05:03:00,42.5,40.6,29.97,West,271,0.0,6.0,93,0.01,,---,0.02,VWS V13.01,2013-04-24 09:03:00,
2013-04-24 06:03:00,42.5,40.6,29.96,WNW,296,4.0,7.0,93,0.01,,---,0.02,VWS V13.01,2013-04-24 10:03:00,
2013-04-24 07:03:00,42.7,40.8,29.94,WNW,302,3.0,8.0,93,0.03,,---,0.05,VWS V13.01,2013-04-24 11:03:00,
2013-04-24 08:03:00,43.4,41.5,29.92,WNW,303,0.0,11.0,93,0.04,,---,0.06,VWS V13.01,2013-04-24 12:03:00,
2013-04-24 09:03:00,44.4,42.5,29.92,NNE,20,2.0,10.0,93,0.01,,---,0.06,VWS V13.01,2013-04-24 13:03:00,
2013-04-24 10:03:00,45.1,42.9,29.90,WNW,300,1.0,10.0,92,0.01,,---,0.07,VWS V13.01,2013-04-24 14:03:00,
2013-04-24 11:03:00,46.8,44.9,29.88,WNW,302,1.0,10.0,93,0.01,,---,0.07,VWS V13.01,2013-04-24 15:03:00,
2013-04-24 12:03:00,49.6,47.1,29.85,WNW,294,2.0,12.0,91,0.00,,---,0.07,VWS V13.01,2013-04-24 16:03:00,
2013-04-24 13:03:00,52.3,47.9,29.82,NW,306,0.0,10.0,85,0.00,,---,0.07,VWS V13.01,2013-04-24 17:03:00,
2013-04-24 14:03:00,56.2,49.4,29.80,WSW,254,0.0,9.0,78,0.00,,---,0.07,VWS V13.01,2013-04-24 18:03:00,
2013-04-24 15:03:00,59.2,50.2,29.77,West,274,4.0,14.0,72,0.00,,---,0.07,VWS V13.01,2013-04-24 19:03:00,
2013-04-24 16:03:00,60.5,50.7,29.75,ENE,63,4.0,7.0,70,0.00,,---,0.07,VWS V13.01,2013-04-24 20:03:00,
2013-04-24 17:03:00,60.9,50.7,29.77,NE,46,1.0,7.0,69,0.00,,---,0.07,VWS V13.01,2013-04-24 21:03:00,
2013-04-24 18:03:00,59.3,49.9,29.78,SSE,161,3.0,7.0,71,0.00,,---,0.07,VWS V13.01,2013-04-24 22:03:00,
2013-04-24 19:03:00,53.0,46.7,29.78,SSE,167,2.0,12.0,79,0.00,,---,0.07,VWS V13.01,2013-04-24 23:03:00,
2013-04-24 20:03:00,49.1,44.5,29.80,ENE,71,1.0,10.0,84,0.00,,---,0.07,VWS V13.01,2013-04-25 00:03:00,
2013-04-24 21:03:00,48.6,44.6,29.80,SE,139,5.0,10.0,86,0.00,,---,0.07,VWS V13.01,2013-04-25 01:03:00,
2013-04-24 22:03:00,46.9,42.9,29.79,ESE,121,2.0,9.0,86,0.00,,---,0.07,VWS V13.01,2013-04-25 02:03:00,
2013-04-24 23:03:00,46.3,42.3,29.79,SE,140,0.0,9.0,86,0.00,,---,0.07,VWS V13.01,2013-04-25 03:03:00,